Gifford, Iowa
Current Conditions -  °F | °C
As of 11:53 PM on Friday 28 Nov 2014 (Local Time) from KMIW Reporting Station
Haze Haze  
Wind Chill: 19°   Ceiling: Unl
Heat Index: 28°   Visibility: 6mi
Dew Point: 26°   Wind: 10mph
Humidity: 92%   Direction: 130°SE
Pressure: 29.65"   Gusts: NA
Location:  42.29°N, 93.09°W
Report Text: KMIW 290553Z AUTO 13009KT 6SM BR CLR M02/M03 A2965 RMK AO2 SLP051 T10221033 11011 21039 400001111 56031
Loading
Personal Weather Stations






























Interactive Weather Map New forecast layout! Learn more

10-Day Weather Forecast

Advertisements
Track Severe Weather on mobile